createdAt,value
2019-02-25T00:00:56.421Z,-0.80
2019-02-25T00:03:25.604Z,-0.80
2019-02-25T00:05:54.528Z,-0.70
2019-02-25T00:08:23.754Z,-0.80
2019-02-25T00:10:52.622Z,-0.80
2019-02-25T00:13:21.493Z,-0.80
2019-02-25T00:15:50.278Z,-0.90
2019-02-25T00:18:19.067Z,-0.90
2019-02-25T00:20:47.997Z,-1.00
2019-02-25T00:23:16.790Z,-1.00
2019-02-25T00:25:45.678Z,-1.10
2019-02-25T00:28:14.882Z,-1.10
2019-02-25T00:30:44.012Z,-1.10
2019-02-25T00:33:12.809Z,-1.10
2019-02-25T00:35:41.920Z,-1.10
2019-02-25T00:38:10.795Z,-1.10
2019-02-25T00:40:39.871Z,-1.20
2019-02-25T00:43:08.792Z,-1.20
2019-02-25T00:45:37.898Z,-1.20
2019-02-25T00:48:06.951Z,-1.30
2019-02-25T00:50:35.730Z,-1.30
2019-02-25T00:53:04.674Z,-1.30
2019-02-25T00:55:33.902Z,-1.40
2019-02-25T00:58:02.699Z,-1.40
2019-02-25T01:00:31.730Z,-1.40
2019-02-25T01:03:01.079Z,-1.50
2019-02-25T01:05:29.920Z,-1.50
2019-02-25T01:07:58.945Z,-1.50
2019-02-25T01:10:27.754Z,-1.60
2019-02-25T01:12:56.825Z,-1.60
2019-02-25T01:15:26.041Z,-1.70
2019-02-25T01:17:55.128Z,-1.70
2019-02-25T01:20:23.925Z,-1.70
2019-02-25T01:22:52.802Z,-1.80
2019-02-25T01:25:21.573Z,-1.80
2019-02-25T01:27:50.385Z,-1.80
2019-02-25T01:30:20.132Z,-1.90
2019-02-25T01:32:48.992Z,-1.90
2019-02-25T01:35:17.857Z,-1.90
2019-02-25T01:37:46.810Z,-2.00
2019-02-25T01:40:15.995Z,-2.00
2019-02-25T01:42:44.845Z,-2.00
2019-02-25T01:45:13.789Z,-2.10
2019-02-25T01:47:42.889Z,-2.10
2019-02-25T01:50:12.012Z,-2.10
2019-02-25T01:52:41.128Z,-2.10
2019-02-25T01:55:10.534Z,-2.00
2019-02-25T01:57:40.105Z,-2.10
2019-02-25T02:00:11.877Z,-2.10
2019-02-25T02:02:41.145Z,-2.10
2019-02-25T02:05:10.085Z,-2.10
2019-02-25T02:07:39.288Z,-2.00
2019-02-25T02:10:09.806Z,-2.10
2019-02-25T02:12:38.924Z,-2.00
2019-02-25T02:15:10.437Z,-2.00
2019-02-25T02:17:39.480Z,-2.00
2019-02-25T02:20:09.310Z,-2.00
2019-02-25T02:22:38.087Z,-1.90
2019-02-25T02:25:07.299Z,-2.00
2019-02-25T02:27:36.149Z,-2.00
2019-02-25T02:30:06.292Z,-2.10
2019-02-25T02:32:35.386Z,-2.10
2019-02-25T02:35:04.720Z,-2.20
2019-02-25T02:37:33.502Z,-2.20
2019-02-25T02:40:02.592Z,-2.20
2019-02-25T02:42:31.395Z,-2.30
2019-02-25T02:45:08.018Z,-2.30
2019-02-25T02:47:49.818Z,-2.30
2019-02-25T02:50:21.273Z,-2.30
2019-02-25T02:52:50.118Z,-2.20
2019-02-25T02:55:19.248Z,-2.20
2019-02-25T02:57:48.169Z,-2.20
2019-02-25T03:00:18.367Z,-2.20
2019-02-25T03:02:47.309Z,-2.20
2019-02-25T03:05:17.504Z,-2.30
2019-02-25T03:07:46.478Z,-2.30
2019-02-25T03:10:17.248Z,-2.30
2019-02-25T03:12:46.292Z,-2.30
2019-02-25T03:15:16.916Z,-2.30
2019-02-25T03:17:46.222Z,-2.30
2019-02-25T03:20:15.140Z,-2.30
2019-02-25T03:22:44.266Z,-2.30
2019-02-25T03:25:14.727Z,-2.30
2019-02-25T03:27:43.749Z,-2.40
2019-02-25T03:30:19.796Z,-2.40
2019-02-25T03:32:48.837Z,-2.40
2019-02-25T03:35:17.642Z,-2.50
2019-02-25T03:37:46.597Z,-2.50
2019-02-25T03:40:17.300Z,-2.60
2019-02-25T03:42:46.208Z,-2.60
2019-02-25T03:45:16.570Z,-2.60
2019-02-25T03:47:45.719Z,-2.50
2019-02-25T03:50:15.110Z,-2.50
2019-02-25T03:52:44.098Z,-2.50
2019-02-25T03:55:14.757Z,-2.50
2019-02-25T03:57:43.790Z,-2.50
2019-02-25T04:00:15.139Z,-2.50
2019-02-25T04:02:44.118Z,-2.50
2019-02-25T04:05:12.990Z,-2.40
2019-02-25T04:07:41.946Z,-2.40
2019-02-25T04:10:11.244Z,-2.50
2019-02-25T04:12:40.337Z,-2.50
2019-02-25T04:15:11.535Z,-2.50
2019-02-25T04:17:40.396Z,-2.50
2019-02-25T04:20:11.272Z,-2.50
2019-02-25T04:22:40.465Z,-2.50
2019-02-25T04:25:09.389Z,-2.50
2019-02-25T04:27:38.438Z,-2.50
2019-02-25T04:30:09.907Z,-2.60
2019-02-25T04:32:38.770Z,-2.70
2019-02-25T04:35:08.513Z,-2.70
2019-02-25T04:37:37.538Z,-2.80
2019-02-25T04:40:07.278Z,-2.90
2019-02-25T04:42:36.314Z,-2.90
2019-02-25T04:45:06.420Z,-2.90
2019-02-25T04:47:35.188Z,-3.00
2019-02-25T04:50:04.568Z,-3.00
2019-02-25T04:52:33.614Z,-3.10
2019-02-25T04:55:02.659Z,-3.00
2019-02-25T04:57:31.445Z,-3.10
2019-02-25T05:00:00.226Z,-3.10
2019-02-25T05:02:29.316Z,-3.10
2019-02-25T05:04:58.345Z,-3.10
2019-02-25T05:07:27.467Z,-3.20
2019-02-25T05:09:56.252Z,-3.20
2019-02-25T05:12:25.363Z,-3.20
2019-02-25T05:14:54.238Z,-3.20
2019-02-25T05:17:23.279Z,-3.30
2019-02-25T05:19:52.381Z,-3.30
2019-02-25T05:22:21.248Z,-3.30
2019-02-25T05:24:50.023Z,-3.30
2019-02-25T05:27:19.093Z,-3.20
2019-02-25T05:29:48.044Z,-3.20
2019-02-25T05:32:17.154Z,-3.20
2019-02-25T05:34:45.962Z,-3.20
2019-02-25T05:37:14.757Z,-3.20
2019-02-25T05:39:43.565Z,-3.20
2019-02-25T05:42:12.350Z,-3.20
2019-02-25T05:44:41.124Z,-3.20
2019-02-25T05:47:10.021Z,-3.30
2019-02-25T05:49:38.962Z,-3.20
2019-02-25T05:52:07.810Z,-3.20
2019-02-25T05:54:36.675Z,-3.20
2019-02-25T05:57:11.085Z,-3.20
2019-02-25T05:59:47.436Z,-3.20
2019-02-25T06:02:16.469Z,-3.20
2019-02-25T06:04:45.259Z,-3.10
2019-02-25T06:07:14.365Z,-3.10
2019-02-25T06:09:43.212Z,-3.00
2019-02-25T06:12:16.790Z,-3.00
2019-02-25T06:14:45.812Z,-3.00
2019-02-25T06:17:14.618Z,-3.00
2019-02-25T06:19:43.498Z,-3.00
2019-02-25T06:22:12.710Z,-3.00
2019-02-25T06:24:41.762Z,-3.00
2019-02-25T06:27:10.560Z,-2.90
2019-02-25T06:29:39.486Z,-2.90
2019-02-25T06:32:08.301Z,-2.90
2019-02-25T06:34:37.123Z,-2.90
2019-02-25T06:37:06.004Z,-2.80
2019-02-25T06:39:34.869Z,-2.80
2019-02-25T06:42:03.934Z,-2.80
2019-02-25T06:44:32.717Z,-2.70
2019-02-25T06:47:01.765Z,-2.70
2019-02-25T06:49:30.548Z,-2.60
2019-02-25T06:51:59.397Z,-2.60
2019-02-25T06:54:28.205Z,-2.50
2019-02-25T06:56:57.201Z,-2.40
2019-02-25T06:59:26.034Z,-2.30
2019-02-25T07:01:54.942Z,-2.20
2019-02-25T07:04:29.500Z,-2.10
2019-02-25T07:07:05.088Z,-2.00
2019-02-25T07:09:41.998Z,-1.90
2019-02-25T07:12:30.773Z,-1.80
2019-02-25T07:15:18.695Z,-1.60
2019-02-25T07:17:55.139Z,-1.50
2019-02-25T07:20:35.321Z,-1.30
2019-02-25T07:23:09.210Z,-1.10
2019-02-25T07:25:44.203Z,-0.90
2019-02-25T07:28:20.162Z,-0.80
2019-02-25T07:31:03.109Z,-0.60
2019-02-25T07:33:49.692Z,-0.40
2019-02-25T07:36:49.977Z,-0.20
2019-02-25T07:39:29.578Z,0.00
2019-02-25T07:42:08.221Z,0.20
2019-02-25T07:44:54.754Z,0.40
2019-02-25T07:47:42.703Z,0.60
2019-02-25T07:50:24.706Z,0.80
2019-02-25T07:53:21.720Z,1.10
2019-02-25T07:56:08.552Z,1.30
2019-02-25T07:58:59.805Z,1.50
2019-02-25T08:01:43.746Z,1.80
2019-02-25T08:04:22.053Z,2.00
2019-02-25T08:07:12.685Z,2.20
2019-02-25T08:09:51.772Z,2.50
2019-02-25T08:12:34.397Z,2.70
2019-02-25T08:15:11.570Z,3.00
2019-02-25T08:17:58.677Z,3.20
2019-02-25T08:20:43.440Z,3.40
2019-02-25T08:23:37.229Z,3.70
2019-02-25T08:26:34.959Z,3.90
2019-02-25T08:29:31.947Z,4.20
2019-02-25T08:32:10.483Z,4.50
2019-02-25T08:34:57.324Z,4.80
2019-02-25T08:37:56.336Z,5.00
2019-02-25T08:41:04.349Z,5.20
2019-02-25T08:44:10.693Z,5.50
2019-02-25T08:46:52.489Z,5.70
2019-02-25T08:49:28.042Z,6.00
2019-02-25T08:51:56.824Z,6.10
2019-02-25T08:54:25.978Z,6.40
2019-02-25T08:56:54.923Z,6.60
2019-02-25T08:59:23.849Z,6.80
2019-02-25T09:01:52.726Z,7.00
2019-02-25T09:04:21.533Z,7.30
2019-02-25T09:06:50.313Z,7.60
2019-02-25T09:09:19.790Z,7.80
2019-02-25T09:11:49.042Z,8.00
2019-02-25T09:14:18.182Z,8.20
2019-02-25T09:16:46.948Z,8.50
2019-02-25T09:19:15.736Z,8.70
2019-02-25T09:21:44.568Z,8.90
2019-02-25T09:24:13.770Z,9.20
2019-02-25T09:26:42.558Z,9.50
2019-02-25T09:29:11.480Z,9.70
2019-02-25T09:31:40.363Z,10.00
2019-02-25T09:34:09.437Z,10.20
2019-02-25T09:36:38.492Z,10.40
2019-02-25T09:39:11.781Z,10.60
2019-02-25T09:41:40.693Z,10.60
2019-02-25T09:44:09.474Z,10.90
2019-02-25T09:46:38.295Z,11.10
2019-02-25T09:49:07.338Z,11.40
2019-02-25T09:51:36.244Z,11.70
2019-02-25T09:54:05.031Z,11.90
2019-02-25T09:56:34.121Z,12.00
2019-02-25T09:59:03.163Z,12.20
2019-02-25T10:01:31.988Z,12.40
2019-02-25T10:04:00.828Z,12.50
2019-02-25T10:06:29.646Z,12.70
2019-02-25T10:08:58.449Z,13.00
2019-02-25T10:11:27.235Z,13.10
2019-02-25T10:13:56.099Z,13.30
2019-02-25T10:16:24.907Z,13.50
2019-02-25T10:18:53.928Z,13.80
2019-02-25T10:21:22.802Z,14.00
2019-02-25T10:23:51.697Z,14.40
2019-02-25T10:26:20.593Z,14.40
2019-02-25T10:28:49.374Z,14.60
2019-02-25T10:31:18.294Z,15.00
2019-02-25T10:33:47.356Z,15.20
2019-02-25T10:36:16.179Z,15.50
2019-02-25T10:38:44.996Z,15.80
2019-02-25T10:41:14.142Z,16.10
2019-02-25T10:43:42.930Z,16.30
2019-02-25T10:46:15.117Z,16.30
2019-02-25T10:48:42.635Z,16.60
2019-02-25T10:51:13.179Z,16.90
2019-02-25T10:53:43.092Z,17.10
2019-02-25T10:56:19.913Z,17.30
2019-02-25T10:58:48.600Z,17.40
2019-02-25T11:01:19.674Z,17.50
2019-02-25T11:03:49.893Z,17.70
2019-02-25T11:06:18.521Z,17.60
2019-02-25T11:08:52.233Z,17.70
2019-02-25T11:11:27.038Z,17.60
2019-02-25T11:13:55.399Z,17.80
2019-02-25T11:16:24.356Z,18.10
2019-02-25T11:18:55.032Z,18.10
2019-02-25T11:21:24.381Z,18.10
2019-02-25T11:23:53.399Z,18.00
2019-02-25T11:26:23.860Z,18.20
2019-02-25T11:28:53.011Z,18.40
2019-02-25T11:31:24.511Z,18.50
2019-02-25T11:33:52.564Z,18.70
2019-02-25T11:36:22.048Z,18.90
2019-02-25T11:38:51.065Z,18.90
2019-02-25T11:41:20.402Z,19.30
2019-02-25T11:43:50.981Z,19.30
2019-02-25T11:46:20.396Z,19.60
2019-02-25T11:48:49.517Z,20.00
2019-02-25T11:51:18.724Z,20.10
2019-02-25T11:53:47.537Z,20.30
2019-02-25T11:56:16.421Z,20.40
2019-02-25T11:58:45.221Z,20.60
2019-02-25T12:01:14.166Z,20.70
2019-02-25T12:03:42.949Z,20.60
2019-02-25T12:06:12.055Z,20.70
2019-02-25T12:08:40.836Z,20.90
2019-02-25T12:11:09.749Z,21.40
2019-02-25T12:13:38.657Z,21.50
2019-02-25T12:16:07.581Z,21.40
2019-02-25T12:18:36.435Z,21.30
2019-02-25T12:21:05.288Z,21.40
2019-02-25T12:23:34.076Z,21.50
2019-02-25T12:26:03.570Z,21.40
2019-02-25T12:28:32.464Z,21.50
2019-02-25T12:31:01.773Z,21.30
2019-02-25T12:33:30.789Z,21.30
2019-02-25T12:35:59.576Z,21.30
2019-02-25T12:38:28.605Z,21.20
2019-02-25T12:40:57.577Z,21.10
2019-02-25T12:43:26.353Z,21.10
2019-02-25T12:45:55.141Z,20.90
2019-02-25T12:48:23.932Z,20.80
2019-02-25T12:50:52.721Z,20.60
2019-02-25T12:53:21.522Z,20.90
2019-02-25T12:55:50.365Z,21.00
2019-02-25T12:58:19.670Z,20.90
2019-02-25T13:00:48.638Z,20.90
2019-02-25T13:03:17.664Z,21.20
2019-02-25T13:05:46.718Z,21.20
2019-02-25T13:08:15.593Z,21.10
2019-02-25T13:10:44.452Z,21.10
2019-02-25T13:13:13.249Z,20.90
2019-02-25T13:15:42.153Z,20.90
2019-02-25T13:18:10.922Z,20.80
2019-02-25T13:20:39.957Z,21.00
2019-02-25T13:23:08.937Z,21.00
2019-02-25T13:25:37.713Z,21.00
2019-02-25T13:28:06.951Z,21.00
2019-02-25T13:30:35.913Z,20.90
2019-02-25T13:33:04.679Z,20.50
2019-02-25T13:35:33.536Z,20.30
2019-02-25T13:38:02.380Z,20.20
2019-02-25T13:40:31.450Z,20.00
2019-02-25T13:43:00.350Z,19.60
2019-02-25T13:45:29.212Z,19.60
2019-02-25T13:48:01.108Z,19.40
2019-02-25T13:50:30.472Z,19.20
2019-02-25T13:52:59.378Z,18.90
2019-02-25T13:55:28.237Z,18.80
2019-02-25T13:57:57.814Z,18.70
2019-02-25T14:00:26.953Z,18.60
2019-02-25T14:02:55.909Z,18.50
2019-02-25T14:05:25.208Z,18.40
2019-02-25T14:07:54.174Z,18.30
2019-02-25T14:10:23.204Z,18.20
2019-02-25T14:12:52.437Z,18.10
2019-02-25T14:15:21.741Z,17.90
2019-02-25T14:17:50.930Z,17.80
2019-02-25T14:20:20.265Z,17.70
2019-02-25T14:22:49.380Z,17.60
2019-02-25T14:25:20.077Z,17.50
2019-02-25T14:27:49.019Z,17.50
2019-02-25T14:30:20.300Z,17.40
2019-02-25T14:32:52.999Z,17.30
2019-02-25T14:35:20.266Z,17.30
2019-02-25T14:37:49.205Z,17.30
2019-02-25T14:40:19.168Z,17.30
2019-02-25T14:42:51.351Z,17.30
2019-02-25T14:45:21.824Z,17.30
2019-02-25T14:47:55.410Z,17.20
2019-02-25T14:50:21.426Z,17.20
2019-02-25T14:52:50.506Z,17.20
2019-02-25T14:55:19.561Z,17.20
2019-02-25T14:57:48.783Z,17.20
2019-02-25T15:00:24.340Z,17.10
2019-02-25T15:02:54.385Z,17.10
2019-02-25T15:05:24.747Z,17.10
2019-02-25T15:07:53.800Z,17.10
2019-02-25T15:10:26.705Z,17.20
2019-02-25T15:12:56.537Z,17.30
2019-02-25T15:15:24.289Z,17.30
2019-02-25T15:17:53.265Z,17.20
2019-02-25T15:20:26.291Z,17.30
2019-02-25T15:22:55.451Z,17.20
2019-02-25T15:25:24.359Z,17.20
2019-02-25T15:27:53.229Z,17.20
2019-02-25T15:30:25.638Z,17.10
2019-02-25T15:32:56.978Z,17.00
2019-02-25T15:35:28.797Z,16.80
2019-02-25T15:37:57.928Z,16.80
2019-02-25T15:40:27.402Z,16.80
2019-02-25T15:43:04.584Z,16.70
2019-02-25T15:45:37.577Z,16.50
2019-02-25T15:48:07.391Z,16.30
2019-02-25T15:50:36.820Z,16.00
2019-02-25T15:53:07.347Z,15.70
2019-02-25T15:55:36.668Z,15.50
2019-02-25T15:58:08.582Z,15.30
2019-02-25T16:00:37.295Z,15.10
2019-02-25T16:03:08.497Z,15.00
2019-02-25T16:05:38.771Z,14.90
2019-02-25T16:08:09.046Z,14.70
2019-02-25T16:10:37.900Z,14.40
2019-02-25T16:13:11.174Z,14.30
2019-02-25T16:15:39.891Z,14.10
2019-02-25T16:18:08.898Z,14.00
2019-02-25T16:20:37.740Z,13.90
2019-02-25T16:23:08.196Z,13.80
2019-02-25T16:25:37.284Z,13.80
2019-02-25T16:28:07.717Z,13.80
2019-02-25T16:30:36.795Z,13.70
2019-02-25T16:33:07.846Z,13.60
2019-02-25T16:35:37.275Z,13.40
2019-02-25T16:38:07.732Z,13.30
2019-02-25T16:40:39.076Z,13.20
2019-02-25T16:43:09.742Z,13.00
2019-02-25T16:45:40.164Z,12.90
2019-02-25T16:48:09.547Z,12.90
2019-02-25T16:50:39.810Z,12.70
2019-02-25T16:53:10.919Z,12.60
2019-02-25T16:55:40.548Z,12.40
2019-02-25T16:58:13.227Z,12.20
2019-02-25T17:00:42.012Z,12.00
2019-02-25T17:03:13.143Z,11.80
2019-02-25T17:05:42.869Z,11.70
2019-02-25T17:08:14.764Z,11.50
2019-02-25T17:10:43.919Z,11.30
2019-02-25T17:13:14.916Z,11.10
2019-02-25T17:15:46.445Z,10.90
2019-02-25T17:18:15.929Z,10.80
2019-02-25T17:20:45.318Z,10.70
2019-02-25T17:23:15.646Z,10.60
2019-02-25T17:25:44.584Z,10.50
2019-02-25T17:28:15.285Z,10.30
2019-02-25T17:30:45.588Z,10.20
2019-02-25T17:33:15.151Z,10.10
2019-02-25T17:35:45.332Z,10.00
2019-02-25T17:38:14.788Z,10.00
2019-02-25T17:40:43.924Z,9.90
2019-02-25T17:43:14.000Z,9.80
2019-02-25T17:45:43.290Z,9.70
2019-02-25T17:48:13.687Z,9.50
2019-02-25T17:50:43.521Z,9.40
2019-02-25T17:53:12.496Z,9.30
2019-02-25T17:55:41.509Z,9.20
2019-02-25T17:58:12.529Z,9.10
2019-02-25T18:00:42.564Z,9.00
2019-02-25T18:03:11.668Z,8.90
2019-02-25T18:05:43.138Z,8.80
2019-02-25T18:08:14.559Z,8.70
2019-02-25T18:10:45.211Z,8.70
2019-02-25T18:13:13.937Z,8.60
2019-02-25T18:15:45.132Z,8.50
2019-02-25T18:18:15.179Z,8.40
2019-02-25T18:20:45.218Z,8.30
2019-02-25T18:23:14.166Z,8.10
2019-02-25T18:25:43.372Z,8.00
2019-02-25T18:28:13.045Z,7.90
2019-02-25T18:30:43.345Z,7.80
2019-02-25T18:33:12.901Z,7.70
2019-02-25T18:35:43.458Z,7.60
2019-02-25T18:38:12.985Z,7.50
2019-02-25T18:40:44.111Z,7.40
2019-02-25T18:43:12.471Z,7.30
2019-02-25T18:45:43.123Z,7.30
2019-02-25T18:48:12.178Z,7.20
2019-02-25T18:50:44.959Z,7.20
2019-02-25T18:53:12.196Z,7.10
2019-02-25T18:55:43.819Z,7.00
2019-02-25T18:58:14.307Z,7.00
2019-02-25T19:00:45.325Z,6.90
2019-02-25T19:03:14.714Z,6.80
2019-02-25T19:05:44.013Z,6.60
2019-02-25T19:08:17.098Z,6.40
2019-02-25T19:10:51.000Z,6.20
2019-02-25T19:13:22.739Z,6.00
2019-02-25T19:15:53.090Z,5.90
2019-02-25T19:18:22.012Z,5.80
2019-02-25T19:20:51.168Z,5.60
2019-02-25T19:23:20.558Z,5.50
2019-02-25T19:25:49.480Z,5.40
2019-02-25T19:28:19.625Z,5.40
2019-02-25T19:30:50.641Z,5.30
2019-02-25T19:33:20.921Z,5.10
2019-02-25T19:35:49.927Z,5.00
2019-02-25T19:38:18.972Z,5.00
2019-02-25T19:40:51.238Z,4.90
2019-02-25T19:43:18.602Z,4.80
2019-02-25T19:45:47.542Z,4.70
2019-02-25T19:48:16.910Z,4.70
2019-02-25T19:50:51.064Z,4.70
2019-02-25T19:53:20.000Z,4.60
2019-02-25T19:55:51.102Z,4.60
2019-02-25T19:58:19.405Z,4.60
2019-02-25T20:00:50.631Z,4.50
2019-02-25T20:03:19.210Z,4.50
2019-02-25T20:05:48.959Z,4.50
2019-02-25T20:08:18.780Z,4.40
2019-02-25T20:10:47.734Z,4.40
2019-02-25T20:13:16.737Z,4.30
2019-02-25T20:15:46.792Z,4.20
2019-02-25T20:18:18.351Z,4.10
2019-02-25T20:20:47.658Z,4.10
2019-02-25T20:23:16.618Z,4.00
2019-02-25T20:25:47.081Z,4.00
2019-02-25T20:28:18.198Z,3.90
2019-02-25T20:30:46.941Z,3.90
2019-02-25T20:33:16.556Z,3.80
2019-02-25T20:35:51.048Z,3.70
2019-02-25T20:38:16.616Z,3.60
2019-02-25T20:40:49.055Z,3.60
2019-02-25T20:43:19.342Z,3.60
2019-02-25T20:45:49.888Z,3.50
2019-02-25T20:48:18.508Z,3.40
2019-02-25T20:50:47.448Z,3.30
2019-02-25T20:53:16.612Z,3.30
2019-02-25T20:55:45.903Z,3.20
2019-02-25T20:58:16.878Z,3.10
2019-02-25T21:00:46.601Z,3.00
2019-02-25T21:03:18.413Z,2.90
2019-02-25T21:05:47.355Z,2.80
2019-02-25T21:08:17.258Z,2.70
2019-02-25T21:10:47.348Z,2.50
2019-02-25T21:13:16.122Z,2.40
2019-02-25T21:15:45.418Z,2.30
2019-02-25T21:18:14.614Z,2.30
2019-02-25T21:20:45.168Z,2.20
2019-02-25T21:23:14.511Z,2.30
2019-02-25T21:25:44.399Z,2.30
2019-02-25T21:28:13.314Z,2.40
2019-02-25T21:30:44.166Z,2.40
2019-02-25T21:33:15.287Z,2.40
2019-02-25T21:35:43.675Z,2.40
2019-02-25T21:38:12.716Z,2.40
2019-02-25T21:40:41.540Z,2.40
2019-02-25T21:43:14.377Z,2.40
2019-02-25T21:45:41.215Z,2.30
2019-02-25T21:48:10.411Z,2.30
2019-02-25T21:50:40.399Z,2.20
2019-02-25T21:53:11.653Z,2.20
2019-02-25T21:55:40.664Z,2.10
2019-02-25T21:58:09.821Z,2.10
2019-02-25T22:00:40.724Z,2.10
2019-02-25T22:03:12.741Z,2.10
2019-02-25T22:05:41.333Z,2.10
2019-02-25T22:08:10.238Z,2.10
2019-02-25T22:10:41.506Z,2.00
2019-02-25T22:13:11.688Z,2.00
2019-02-25T22:15:41.191Z,1.90
2019-02-25T22:18:12.347Z,1.80
2019-02-25T22:20:44.240Z,1.70
2019-02-25T22:23:12.847Z,1.60
2019-02-25T22:25:41.630Z,1.50
2019-02-25T22:28:10.684Z,1.50
2019-02-25T22:30:39.524Z,1.30
2019-02-25T22:33:23.160Z,1.30
2019-02-25T22:35:40.541Z,1.20
2019-02-25T22:38:10.084Z,1.10
2019-02-25T22:40:39.064Z,1.10
2019-02-25T22:43:10.055Z,1.00
2019-02-25T22:45:39.797Z,1.00
2019-02-25T22:48:11.636Z,0.90
2019-02-25T22:50:40.289Z,0.90
2019-02-25T22:53:11.142Z,0.80
2019-02-25T22:55:42.660Z,0.80
2019-02-25T22:58:12.585Z,0.70
2019-02-25T23:00:53.033Z,0.70
2019-02-25T23:03:24.599Z,0.70
2019-02-25T23:05:55.064Z,0.70
2019-02-25T23:08:25.885Z,0.70
2019-02-25T23:10:54.802Z,0.70
2019-02-25T23:13:25.126Z,0.80
2019-02-25T23:15:54.422Z,0.80
2019-02-25T23:18:25.895Z,0.70
2019-02-25T23:20:55.489Z,0.70
2019-02-25T23:23:26.486Z,0.70
2019-02-25T23:25:56.655Z,0.60
2019-02-25T23:28:27.897Z,0.60
2019-02-25T23:30:56.429Z,0.50
2019-02-25T23:33:25.429Z,0.50
2019-02-25T23:35:56.046Z,0.50
2019-02-25T23:38:24.982Z,0.40
2019-02-25T23:40:53.760Z,0.40
2019-02-25T23:43:23.879Z,0.30
2019-02-25T23:45:52.675Z,0.30
2019-02-25T23:48:21.799Z,0.20
2019-02-25T23:50:52.497Z,0.10
2019-02-25T23:53:21.148Z,0.10
2019-02-25T23:55:51.810Z,0.00
2019-02-25T23:58:23.598Z,0.00
